createdAt,value
2023-04-10T00:00:08.630Z,9.98
2023-04-10T00:02:56.519Z,9.96
2023-04-10T00:05:24.162Z,9.93
2023-04-10T00:07:51.776Z,9.96
2023-04-10T00:10:19.601Z,9.96
2023-04-10T00:12:47.136Z,9.99
2023-04-10T00:15:14.390Z,10.02
2023-04-10T00:17:42.004Z,10.06
2023-04-10T00:20:10.090Z,9.99
2023-04-10T00:22:37.622Z,9.96
2023-04-10T00:25:06.616Z,9.91
2023-04-10T00:27:34.108Z,9.96
2023-04-10T00:30:02.750Z,9.96
2023-04-10T00:32:30.444Z,9.94
2023-04-10T00:34:57.709Z,9.89
2023-04-10T00:37:25.254Z,9.86
2023-04-10T00:39:52.464Z,9.81
2023-04-10T00:42:19.989Z,9.80
2023-04-10T00:44:47.266Z,9.68
2023-04-10T00:47:15.742Z,9.71
2023-04-10T00:49:43.966Z,9.80
2023-04-10T00:52:12.768Z,9.74
2023-04-10T00:54:40.832Z,9.76
2023-04-10T00:57:09.046Z,9.72
2023-04-10T00:59:36.854Z,9.75
2023-04-10T01:02:04.908Z,9.67
2023-04-10T01:04:33.925Z,9.62
2023-04-10T01:07:29.518Z,9.43
2023-04-10T01:10:29.184Z,9.48
2023-04-10T01:13:05.988Z,9.59
2023-04-10T01:16:00.451Z,9.70
2023-04-10T01:18:50.022Z,9.74
2023-04-10T01:21:18.359Z,9.72
2023-04-10T01:24:30.484Z,9.81
2023-04-10T01:27:15.502Z,9.77
2023-04-10T01:29:52.240Z,9.67
2023-04-10T01:32:23.097Z,9.64
2023-04-10T01:34:56.975Z,9.58
2023-04-10T01:37:31.241Z,9.70
2023-04-10T01:40:07.125Z,9.80
2023-04-10T01:42:44.856Z,9.86
2023-04-10T01:45:19.087Z,9.95
2023-04-10T01:47:47.629Z,10.02
2023-04-10T01:50:16.911Z,10.09
2023-04-10T01:52:46.494Z,10.17
2023-04-10T01:55:15.880Z,10.20
2023-04-10T01:57:43.721Z,10.16
2023-04-10T02:00:12.406Z,10.12
2023-04-10T02:02:39.717Z,10.08
2023-04-10T02:05:07.918Z,10.00
2023-04-10T02:08:12.493Z,9.74
2023-04-10T02:10:58.333Z,9.69
2023-04-10T02:13:29.602Z,9.66
2023-04-10T02:16:04.100Z,9.61
2023-04-10T02:18:34.989Z,9.60
2023-04-10T02:21:04.000Z,9.61
2023-04-10T02:23:31.233Z,9.59
2023-04-10T02:25:58.785Z,9.57
2023-04-10T02:28:26.259Z,9.51
2023-04-10T02:30:53.746Z,9.42
2023-04-10T02:33:21.457Z,9.35
2023-04-10T02:35:48.942Z,9.34
2023-04-10T02:38:17.391Z,9.39
2023-04-10T02:40:46.198Z,9.42
2023-04-10T02:43:13.495Z,9.39
2023-04-10T02:45:41.932Z,9.37
2023-04-10T02:48:11.052Z,9.38
2023-04-10T02:50:38.760Z,9.36
2023-04-10T02:53:06.184Z,9.43
2023-04-10T02:55:33.749Z,9.48
2023-04-10T02:58:01.010Z,9.42
2023-04-10T03:00:29.163Z,9.46
2023-04-10T03:02:56.557Z,9.44
2023-04-10T03:05:24.122Z,9.39
2023-04-10T03:07:51.668Z,9.43
2023-04-10T03:10:19.159Z,9.39
2023-04-10T03:12:48.890Z,9.38
2023-04-10T03:15:16.520Z,9.28
2023-04-10T03:17:43.815Z,9.30
2023-04-10T03:20:12.236Z,9.36
2023-04-10T03:22:39.889Z,9.34
2023-04-10T03:25:07.979Z,9.31
2023-04-10T03:27:35.787Z,9.31
2023-04-10T03:30:03.602Z,9.24
2023-04-10T03:32:31.336Z,9.28
2023-04-10T03:34:59.316Z,9.33
2023-04-10T03:37:27.844Z,9.35
2023-04-10T03:39:55.616Z,9.35
2023-04-10T03:42:23.011Z,9.40
2023-04-10T03:44:50.723Z,9.36
2023-04-10T03:47:18.053Z,9.38
2023-04-10T03:49:45.609Z,9.41
2023-04-10T03:52:12.856Z,9.39
2023-04-10T03:54:40.378Z,9.42
2023-04-10T03:57:07.772Z,9.46
2023-04-10T03:59:38.843Z,9.48
2023-04-10T04:02:07.820Z,9.50
2023-04-10T04:04:35.746Z,9.43
2023-04-10T04:07:03.067Z,9.42
2023-04-10T04:09:30.598Z,9.39
2023-04-10T04:11:57.925Z,9.42
2023-04-10T04:14:25.522Z,9.49
2023-04-10T04:16:53.041Z,9.47
2023-04-10T04:19:20.744Z,9.38
2023-04-10T04:21:47.948Z,9.43
2023-04-10T04:24:15.504Z,9.43
2023-04-10T04:26:42.808Z,9.45
2023-04-10T04:29:10.317Z,9.52
2023-04-10T04:31:37.643Z,9.48
2023-04-10T04:34:05.346Z,9.51
2023-04-10T04:36:32.599Z,9.54
2023-04-10T04:39:00.276Z,9.55
2023-04-10T04:41:27.623Z,9.61
2023-04-10T04:43:55.904Z,9.60
2023-04-10T04:46:23.471Z,9.65
2023-04-10T04:48:51.338Z,9.63
2023-04-10T04:51:18.599Z,9.61
2023-04-10T04:53:46.237Z,9.57
2023-04-10T04:56:13.602Z,9.67
2023-04-10T04:58:41.261Z,9.74
2023-04-10T05:01:09.154Z,9.65
2023-04-10T05:03:36.880Z,9.69
2023-04-10T05:06:05.433Z,9.68
2023-04-10T05:08:33.071Z,9.74
2023-04-10T05:11:00.595Z,9.77
2023-04-10T05:13:28.123Z,9.78
2023-04-10T05:15:55.581Z,9.68
2023-04-10T05:18:24.040Z,9.80
2023-04-10T05:20:51.628Z,9.82
2023-04-10T05:23:19.225Z,9.79
2023-04-10T05:25:46.601Z,9.82
2023-04-10T05:28:14.667Z,9.92
2023-04-10T05:30:41.870Z,9.90
2023-04-10T05:33:09.383Z,9.89
2023-04-10T05:35:36.712Z,9.93
2023-04-10T05:38:04.331Z,9.94
2023-04-10T05:40:31.749Z,9.89
2023-04-10T05:42:59.259Z,9.77
2023-04-10T05:45:28.702Z,9.79
2023-04-10T05:47:56.309Z,9.80
2023-04-10T05:50:23.655Z,9.81
2023-04-10T05:52:51.360Z,9.81
2023-04-10T05:55:18.812Z,9.80
2023-04-10T05:57:47.178Z,9.81
2023-04-10T06:00:16.324Z,9.83
2023-04-10T06:02:44.112Z,9.83
2023-04-10T06:05:11.809Z,9.89
2023-04-10T06:07:39.342Z,9.95
2023-04-10T06:10:07.755Z,10.06
2023-04-10T06:12:35.602Z,10.13
2023-04-10T06:15:02.962Z,10.21
2023-04-10T06:17:30.968Z,10.27
2023-04-10T06:20:01.063Z,10.40
2023-04-10T06:22:28.715Z,10.38
2023-04-10T06:24:55.979Z,10.46
2023-04-10T06:27:23.652Z,10.46
2023-04-10T06:29:51.283Z,10.55
2023-04-10T06:32:18.949Z,10.65
2023-04-10T06:34:46.555Z,10.60
2023-04-10T06:37:14.189Z,10.70
2023-04-10T06:39:41.377Z,10.48
2023-04-10T06:42:08.896Z,10.45
2023-04-10T06:44:36.142Z,10.32
2023-04-10T06:47:04.033Z,10.37
2023-04-10T06:49:31.324Z,10.37
2023-04-10T06:51:58.897Z,10.44
2023-04-10T06:54:26.267Z,10.48
2023-04-10T06:56:58.950Z,10.52
2023-04-10T06:59:26.349Z,10.45
2023-04-10T07:01:53.934Z,10.37
2023-04-10T07:04:21.301Z,10.31
2023-04-10T07:06:48.855Z,10.35
2023-04-10T07:09:16.122Z,10.40
2023-04-10T07:11:43.627Z,10.44
2023-04-10T07:14:11.307Z,10.34
2023-04-10T07:16:38.827Z,10.39
2023-04-10T07:19:06.147Z,10.36
2023-04-10T07:21:33.746Z,10.38
2023-04-10T07:24:01.371Z,10.35
2023-04-10T07:26:28.900Z,10.40
2023-04-10T07:28:56.233Z,10.48
2023-04-10T07:31:24.253Z,10.50
2023-04-10T07:33:51.942Z,10.65
2023-04-10T07:36:19.609Z,10.77
2023-04-10T07:38:46.926Z,10.82
2023-04-10T07:41:14.663Z,10.89
2023-04-10T07:43:42.021Z,10.93
2023-04-10T07:46:09.891Z,11.11
2023-04-10T07:48:37.334Z,11.26
2023-04-10T07:51:05.891Z,11.42
2023-04-10T07:53:33.168Z,11.49
2023-04-10T07:56:00.839Z,11.63
2023-04-10T07:58:28.311Z,11.73
2023-04-10T08:00:55.841Z,11.83
2023-04-10T08:03:23.725Z,11.89
2023-04-10T08:05:51.815Z,12.02
2023-04-10T08:08:19.052Z,12.02
2023-04-10T08:10:46.610Z,12.12
2023-04-10T08:13:13.966Z,12.27
2023-04-10T08:15:41.512Z,12.30
2023-04-10T08:18:08.759Z,12.42
2023-04-10T08:20:37.262Z,12.66
2023-04-10T08:23:19.288Z,12.73
2023-04-10T08:25:48.231Z,12.81
2023-04-10T08:28:15.494Z,13.28
2023-04-10T08:30:43.135Z,13.61
2023-04-10T08:33:10.433Z,13.36
2023-04-10T08:35:38.025Z,13.34
2023-04-10T08:38:13.707Z,13.28
2023-04-10T08:40:42.881Z,13.38
2023-04-10T08:43:10.539Z,13.49
2023-04-10T08:45:41.033Z,13.59
2023-04-10T08:48:11.131Z,13.80
2023-04-10T08:50:43.568Z,13.71
2023-04-10T08:53:15.950Z,13.95
2023-04-10T08:55:46.179Z,14.24
2023-04-10T08:58:14.069Z,14.39
2023-04-10T09:00:41.774Z,14.52
2023-04-10T09:03:15.223Z,14.63
2023-04-10T09:05:42.997Z,15.10
2023-04-10T09:08:13.910Z,16.56
2023-04-10T09:10:41.509Z,17.48
2023-04-10T09:13:08.957Z,18.43
2023-04-10T09:16:00.355Z,18.07
2023-04-10T09:18:47.704Z,19.19
2023-04-10T09:21:18.887Z,19.06
2023-04-10T09:23:48.355Z,18.29
2023-04-10T09:26:33.833Z,17.78
2023-04-10T09:29:07.311Z,17.71
2023-04-10T09:31:38.281Z,17.21
2023-04-10T09:34:23.032Z,16.64
2023-04-10T09:37:01.855Z,16.17
2023-04-10T09:39:43.969Z,15.83
2023-04-10T09:42:12.957Z,15.55
2023-04-10T09:44:42.485Z,15.31
2023-04-10T09:47:24.126Z,14.76
2023-04-10T09:50:02.920Z,14.95
2023-04-10T09:52:34.833Z,14.80
2023-04-10T09:55:05.765Z,14.78
2023-04-10T09:57:35.728Z,14.73
2023-04-10T10:00:07.174Z,14.77
2023-04-10T10:02:42.341Z,14.70
2023-04-10T10:05:11.342Z,14.54
2023-04-10T10:07:39.706Z,14.52
2023-04-10T10:10:11.421Z,14.57
2023-04-10T10:12:54.931Z,14.58
2023-04-10T10:15:41.017Z,14.52
2023-04-10T10:18:21.074Z,14.41
2023-04-10T10:20:50.573Z,14.36
2023-04-10T10:23:19.955Z,14.36
2023-04-10T10:25:48.905Z,14.36
2023-04-10T10:28:19.102Z,14.44
2023-04-10T10:30:51.526Z,14.34
2023-04-10T10:33:19.385Z,14.26
2023-04-10T10:35:47.123Z,14.28
2023-04-10T10:38:16.217Z,14.46
2023-04-10T10:40:57.420Z,14.52
2023-04-10T10:43:48.381Z,14.59
2023-04-10T10:46:38.073Z,14.55
2023-04-10T10:49:05.874Z,14.55
2023-04-10T10:51:50.969Z,14.36
2023-04-10T10:54:33.843Z,14.22
2023-04-10T10:57:03.170Z,14.10
2023-04-10T10:59:48.707Z,13.97
2023-04-10T11:02:18.641Z,13.97
2023-04-10T11:04:51.400Z,14.02
2023-04-10T11:07:19.285Z,14.09
2023-04-10T11:09:51.250Z,14.00
2023-04-10T11:12:25.932Z,14.01
2023-04-10T11:15:05.394Z,14.36
2023-04-10T11:17:54.509Z,16.31
2023-04-10T11:20:25.876Z,19.11
2023-04-10T11:23:11.158Z,21.10
2023-04-10T11:25:54.156Z,20.44
2023-04-10T11:28:33.612Z,19.95
2023-04-10T11:31:19.697Z,19.34
2023-04-10T11:34:08.981Z,18.79
2023-04-10T11:36:42.809Z,18.32
2023-04-10T11:39:13.526Z,18.02
2023-04-10T11:41:44.003Z,17.73
2023-04-10T11:44:35.871Z,17.66
2023-04-10T11:47:03.559Z,17.70
2023-04-10T11:49:34.514Z,18.30
2023-04-10T11:52:02.206Z,19.80
2023-04-10T11:54:30.315Z,20.83
2023-04-10T11:57:14.491Z,22.76
2023-04-10T11:59:41.692Z,29.02
2023-04-10T12:02:16.642Z,31.24
2023-04-10T12:04:44.759Z,35.17
2023-04-10T12:07:12.516Z,37.91
2023-04-10T12:09:40.684Z,39.99
2023-04-10T12:12:08.745Z,42.08
2023-04-10T12:14:42.758Z,38.18
2023-04-10T12:17:13.104Z,36.53
2023-04-10T12:19:41.677Z,39.14
2023-04-10T12:22:13.410Z,42.58
2023-04-10T12:24:53.358Z,46.08
2023-04-10T12:27:29.645Z,47.97
2023-04-10T12:29:59.142Z,47.68
2023-04-10T12:32:29.487Z,47.46
2023-04-10T12:34:58.913Z,43.20
2023-04-10T12:37:54.604Z,47.92
2023-04-10T12:40:21.877Z,47.01
2023-04-10T12:42:49.510Z,41.16
2023-04-10T12:45:16.757Z,38.43
2023-04-10T12:47:47.807Z,38.86
2023-04-10T12:50:17.987Z,41.49
2023-04-10T12:53:02.624Z,39.33
2023-04-10T12:55:29.972Z,35.80
2023-04-10T12:57:57.841Z,33.61
2023-04-10T13:00:26.442Z,32.20
2023-04-10T13:02:54.890Z,30.89
2023-04-10T13:05:22.526Z,29.76
2023-04-10T13:07:52.946Z,29.49
2023-04-10T13:10:20.460Z,34.96
2023-04-10T13:12:47.982Z,37.86
2023-04-10T13:15:17.008Z,40.32
2023-04-10T13:17:44.634Z,41.61
2023-04-10T13:20:13.454Z,42.33
2023-04-10T13:22:40.961Z,43.25
2023-04-10T13:25:08.857Z,40.95
2023-04-10T13:27:36.485Z,41.89
2023-04-10T13:30:04.115Z,41.55
2023-04-10T13:32:31.884Z,38.01
2023-04-10T13:34:59.233Z,35.28
2023-04-10T13:37:26.865Z,32.80
2023-04-10T13:39:55.028Z,33.78
2023-04-10T13:42:22.804Z,34.67
2023-04-10T13:44:50.187Z,34.57
2023-04-10T13:47:17.726Z,38.12
2023-04-10T13:49:45.007Z,40.37
2023-04-10T13:52:12.558Z,40.51
2023-04-10T13:54:39.842Z,40.64
2023-04-10T13:57:07.382Z,40.67
2023-04-10T13:59:34.699Z,37.69
2023-04-10T14:02:02.426Z,35.49
2023-04-10T14:04:29.704Z,34.58
2023-04-10T14:07:00.537Z,35.29
2023-04-10T14:09:28.502Z,35.44
2023-04-10T14:11:56.271Z,35.58
2023-04-10T14:14:26.191Z,33.99
2023-04-10T14:16:53.822Z,32.79
2023-04-10T14:19:21.381Z,34.57
2023-04-10T14:21:48.979Z,34.98
2023-04-10T14:24:16.210Z,34.45
2023-04-10T14:26:43.735Z,35.64
2023-04-10T14:29:11.200Z,36.28
2023-04-10T14:31:47.111Z,35.72
2023-04-10T14:34:22.146Z,33.70
2023-04-10T14:36:49.751Z,31.73
2023-04-10T14:39:17.101Z,30.78
2023-04-10T14:41:44.638Z,29.43
2023-04-10T14:44:11.847Z,28.86
2023-04-10T14:46:39.413Z,28.08
2023-04-10T14:49:06.683Z,27.37
2023-04-10T14:51:34.379Z,26.03
2023-04-10T14:54:02.559Z,25.85
2023-04-10T14:56:30.716Z,24.91
2023-04-10T14:58:58.006Z,24.74
2023-04-10T15:01:25.630Z,24.57
2023-04-10T15:03:53.733Z,24.35
2023-04-10T15:06:22.001Z,24.17
2023-04-10T15:08:49.325Z,23.65
2023-04-10T15:11:16.954Z,23.91
2023-04-10T15:13:44.177Z,23.90
2023-04-10T15:16:12.113Z,23.98
2023-04-10T15:18:39.340Z,24.01
2023-04-10T15:21:07.085Z,23.71
2023-04-10T15:23:34.566Z,23.91
2023-04-10T15:26:03.424Z,23.67
2023-04-10T15:28:30.928Z,23.45
2023-04-10T15:30:58.712Z,23.09
2023-04-10T15:33:26.061Z,22.80
2023-04-10T15:35:53.737Z,22.70
2023-04-10T15:38:21.105Z,22.58
2023-04-10T15:40:48.675Z,22.46
2023-04-10T15:43:15.967Z,22.20
2023-04-10T15:45:43.642Z,22.17
2023-04-10T15:48:10.972Z,22.07
2023-04-10T15:50:40.592Z,22.23
2023-04-10T15:53:07.893Z,22.19
2023-04-10T15:55:40.929Z,22.00
2023-04-10T15:58:08.197Z,22.13
2023-04-10T16:00:36.129Z,22.22
2023-04-10T16:03:03.816Z,22.04
2023-04-10T16:05:31.662Z,21.61
2023-04-10T16:07:59.059Z,21.33
2023-04-10T16:10:26.711Z,20.87
2023-04-10T16:12:56.599Z,19.95
2023-04-10T16:15:24.235Z,20.01
2023-04-10T16:17:51.518Z,19.82
2023-04-10T16:20:19.242Z,19.64
2023-04-10T16:22:46.523Z,19.46
2023-04-10T16:25:14.685Z,19.18
2023-04-10T16:27:42.041Z,18.52
2023-04-10T16:30:11.796Z,17.97
2023-04-10T16:32:39.253Z,16.76
2023-04-10T16:35:07.719Z,16.15
2023-04-10T16:37:35.335Z,15.74
2023-04-10T16:40:04.016Z,15.57
2023-04-10T16:42:31.907Z,15.54
2023-04-10T16:45:01.206Z,15.51
2023-04-10T16:47:29.009Z,15.56
2023-04-10T16:49:56.720Z,15.54
2023-04-10T16:52:23.966Z,15.50
2023-04-10T16:54:51.651Z,15.45
2023-04-10T16:57:19.056Z,15.39
2023-04-10T16:59:46.678Z,15.41
2023-04-10T17:02:13.993Z,15.38
2023-04-10T17:04:41.636Z,15.35
2023-04-10T17:07:08.961Z,15.16
2023-04-10T17:09:39.656Z,15.04
2023-04-10T17:12:07.088Z,14.89
2023-04-10T17:14:34.715Z,14.79
2023-04-10T17:17:02.174Z,14.65
2023-04-10T17:19:30.688Z,14.36
2023-04-10T17:21:58.410Z,14.28
2023-04-10T17:24:26.205Z,14.22
2023-04-10T17:26:53.584Z,14.08
2023-04-10T17:29:21.190Z,13.92
2023-04-10T17:31:48.659Z,13.81
2023-04-10T17:34:16.344Z,13.77
2023-04-10T17:36:43.657Z,13.62
2023-04-10T17:39:11.244Z,13.64
2023-04-10T17:41:38.590Z,13.56
2023-04-10T17:44:06.430Z,13.50
2023-04-10T17:46:33.827Z,13.48
2023-04-10T17:49:01.881Z,13.38
2023-04-10T17:51:29.520Z,13.34
2023-04-10T17:53:57.362Z,13.31
2023-04-10T17:56:24.760Z,13.18
2023-04-10T17:58:59.053Z,13.11
2023-04-10T18:01:29.876Z,13.05
2023-04-10T18:03:59.226Z,12.98
2023-04-10T18:06:27.753Z,13.02
2023-04-10T18:08:58.492Z,12.99
2023-04-10T18:11:25.960Z,12.99
2023-04-10T18:13:53.640Z,13.01
2023-04-10T18:16:20.979Z,13.01
2023-04-10T18:18:48.778Z,13.00
2023-04-10T18:21:16.419Z,13.02
2023-04-10T18:23:44.740Z,13.02
2023-04-10T18:26:13.158Z,13.04
2023-04-10T18:28:42.228Z,13.06
2023-04-10T18:31:09.819Z,13.04
2023-04-10T18:33:37.483Z,13.04
2023-04-10T18:36:05.213Z,13.04
2023-04-10T18:38:34.633Z,13.01
2023-04-10T18:41:10.999Z,12.99
2023-04-10T18:43:39.987Z,13.00
2023-04-10T18:46:07.790Z,12.99
2023-04-10T18:48:41.149Z,13.00
2023-04-10T18:51:11.780Z,12.96
2023-04-10T18:53:40.980Z,12.90
2023-04-10T18:56:08.815Z,12.82
2023-04-10T18:58:36.669Z,12.78
2023-04-10T19:01:04.176Z,12.76
2023-04-10T19:03:32.064Z,12.70
2023-04-10T19:05:59.455Z,12.62
2023-04-10T19:08:27.104Z,12.60
2023-04-10T19:10:54.384Z,12.54
2023-04-10T19:13:22.928Z,12.46
2023-04-10T19:15:51.072Z,12.44
2023-04-10T19:18:18.696Z,12.39
2023-04-10T19:20:49.756Z,12.35
2023-04-10T19:23:19.369Z,12.38
2023-04-10T19:25:47.340Z,12.38
2023-04-10T19:28:14.893Z,12.36
2023-04-10T19:30:42.173Z,12.37
2023-04-10T19:33:09.744Z,12.41
2023-04-10T19:35:37.049Z,12.46
2023-04-10T19:38:04.768Z,12.47
2023-04-10T19:40:32.276Z,12.47
2023-04-10T19:43:01.988Z,12.38
2023-04-10T19:45:29.610Z,12.18
2023-04-10T19:47:57.519Z,11.94
2023-04-10T19:50:25.015Z,11.97
2023-04-10T19:52:52.654Z,11.84
2023-04-10T19:55:20.254Z,11.76
2023-04-10T19:57:48.428Z,11.79
2023-04-10T20:00:16.058Z,11.72
2023-04-10T20:02:44.115Z,11.75
2023-04-10T20:05:11.988Z,11.76
2023-04-10T20:07:39.734Z,11.75
2023-04-10T20:10:08.255Z,11.79
2023-04-10T20:12:36.013Z,11.74
2023-04-10T20:15:05.224Z,11.78
2023-04-10T20:17:32.926Z,11.77
2023-04-10T20:20:00.415Z,11.69
2023-04-10T20:22:29.390Z,11.66
2023-04-10T20:24:56.643Z,11.69
2023-04-10T20:27:24.800Z,11.53
2023-04-10T20:29:52.298Z,11.46
2023-04-10T20:32:19.944Z,11.39
2023-04-10T20:34:47.481Z,11.30
2023-04-10T20:37:18.790Z,11.16
2023-04-10T20:39:46.183Z,11.05
2023-04-10T20:42:13.766Z,10.93
2023-04-10T20:44:41.042Z,10.85
2023-04-10T20:47:08.889Z,10.82
2023-04-10T20:49:39.319Z,10.76
2023-04-10T20:52:07.341Z,10.71
2023-04-10T20:54:34.664Z,10.62
2023-04-10T20:57:02.400Z,10.58
2023-04-10T20:59:30.177Z,10.51
2023-04-10T21:01:59.344Z,10.54
2023-04-10T21:04:26.713Z,10.44
2023-04-10T21:06:54.431Z,10.27
2023-04-10T21:09:21.794Z,10.30
2023-04-10T21:11:49.406Z,10.20
2023-04-10T21:14:16.745Z,10.21
2023-04-10T21:16:45.989Z,10.20
2023-04-10T21:19:14.033Z,10.19
2023-04-10T21:21:41.722Z,10.11
2023-04-10T21:24:09.028Z,9.97
2023-04-10T21:26:36.801Z,9.94
2023-04-10T21:29:04.173Z,9.91
2023-04-10T21:31:31.846Z,9.90
2023-04-10T21:33:59.096Z,9.81
2023-04-10T21:36:26.727Z,9.79
2023-04-10T21:38:54.248Z,9.82
2023-04-10T21:41:22.038Z,9.78
2023-04-10T21:43:49.456Z,9.67
2023-04-10T21:46:17.150Z,9.61
2023-04-10T21:48:44.410Z,9.60
2023-04-10T21:51:11.996Z,9.45
2023-04-10T21:53:39.453Z,9.47
2023-04-10T21:56:07.621Z,9.57
2023-04-10T21:58:35.011Z,9.59
2023-04-10T22:01:02.583Z,9.59
2023-04-10T22:03:30.108Z,9.56
2023-04-10T22:05:57.775Z,9.51
2023-04-10T22:08:25.406Z,9.53
2023-04-10T22:10:53.031Z,9.40
2023-04-10T22:13:30.453Z,9.49
2023-04-10T22:16:01.918Z,9.35
2023-04-10T22:18:29.713Z,9.41
2023-04-10T22:20:57.391Z,9.45
2023-04-10T22:23:24.729Z,9.38
2023-04-10T22:25:52.276Z,9.51
2023-04-10T22:28:19.551Z,9.49
2023-04-10T22:30:47.217Z,9.48
2023-04-10T22:33:15.638Z,9.49
2023-04-10T22:35:43.311Z,9.53
2023-04-10T22:38:10.794Z,9.54
2023-04-10T22:40:38.358Z,9.59
2023-04-10T22:43:05.656Z,9.61
2023-04-10T22:45:33.402Z,9.64
2023-04-10T22:48:00.672Z,9.64
2023-04-10T22:50:28.254Z,9.63
2023-04-10T22:52:55.676Z,9.61
2023-04-10T22:55:23.467Z,9.59
2023-04-10T22:57:50.819Z,9.57
2023-04-10T23:00:18.722Z,9.59
2023-04-10T23:02:46.373Z,9.57
2023-04-10T23:05:14.110Z,9.55
2023-04-10T23:07:41.431Z,9.55
2023-04-10T23:10:09.499Z,9.54
2023-04-10T23:12:37.862Z,9.53
2023-04-10T23:15:07.509Z,9.54
2023-04-10T23:17:35.075Z,9.53
2023-04-10T23:20:02.752Z,9.54
2023-04-10T23:22:30.410Z,9.53
2023-04-10T23:24:58.216Z,9.51
2023-04-10T23:27:25.532Z,9.47
2023-04-10T23:29:53.210Z,9.43
2023-04-10T23:32:20.506Z,9.43
2023-04-10T23:34:48.038Z,9.41
2023-04-10T23:37:15.397Z,9.38
2023-04-10T23:39:42.970Z,9.34
2023-04-10T23:42:10.245Z,9.32
2023-04-10T23:44:37.782Z,9.30
2023-04-10T23:47:06.339Z,9.26
2023-04-10T23:49:35.391Z,9.22
2023-04-10T23:52:02.775Z,9.16
2023-04-10T23:54:30.709Z,9.23
2023-04-10T23:56:58.006Z,9.21
2023-04-10T23:59:25.618Z,9.18
